createdAt,value
2022-08-07T00:01:43.828Z,10.75
2022-08-07T00:04:04.119Z,12.07
2022-08-07T00:06:34.781Z,14.45
2022-08-07T00:09:16.341Z,16.88
2022-08-07T00:11:54.200Z,11.68
2022-08-07T00:14:30.129Z,12.13
2022-08-07T00:17:00.038Z,10.70
2022-08-07T00:19:59.737Z,10.43
2022-08-07T00:22:24.860Z,9.90
2022-08-07T00:25:05.030Z,14.40
2022-08-07T00:27:51.964Z,11.18
2022-08-07T00:30:27.322Z,10.43
2022-08-07T00:32:56.791Z,11.60
2022-08-07T00:35:25.201Z,11.73
2022-08-07T00:37:55.031Z,14.05
2022-08-07T00:40:36.664Z,11.02
2022-08-07T00:43:59.326Z,9.65
2022-08-07T00:45:59.519Z,11.38
2022-08-07T00:48:32.181Z,11.25
2022-08-07T00:51:02.835Z,11.80
2022-08-07T00:53:38.934Z,12.20
2022-08-07T00:56:19.169Z,14.35
2022-08-07T00:58:49.775Z,10.45
2022-08-07T01:01:21.336Z,10.88
2022-08-07T01:03:55.299Z,10.60
2022-08-07T01:06:26.416Z,11.45
2022-08-07T01:08:55.703Z,14.75
2022-08-07T01:12:27.623Z,12.88
2022-08-07T01:14:15.542Z,13.23
2022-08-07T01:16:46.948Z,13.23
2022-08-07T01:19:19.285Z,12.02
2022-08-07T01:21:53.168Z,12.35
2022-08-07T01:24:24.376Z,15.73
2022-08-07T01:26:53.926Z,13.45
2022-08-07T01:29:27.759Z,13.63
2022-08-07T01:32:00.032Z,15.40
2022-08-07T01:34:31.410Z,16.45
2022-08-07T01:37:01.560Z,13.88
2022-08-07T01:39:40.482Z,13.25
2022-08-07T01:42:38.410Z,13.98
2022-08-07T01:44:58.576Z,15.07
2022-08-07T01:48:19.745Z,17.98
2022-08-07T01:50:28.656Z,13.02
2022-08-07T01:53:01.448Z,14.73
2022-08-07T01:55:40.628Z,19.73
2022-08-07T01:58:29.571Z,15.07
2022-08-07T02:01:10.147Z,16.50
2022-08-07T02:03:56.639Z,19.50
2022-08-07T02:06:30.978Z,17.23
2022-08-07T02:09:05.190Z,15.18
2022-08-07T02:12:02.753Z,12.93
2022-08-07T02:14:40.366Z,12.55
2022-08-07T02:17:11.372Z,12.90
2022-08-07T02:20:04.181Z,13.98
2022-08-07T02:22:32.105Z,13.43
2022-08-07T02:25:07.425Z,15.10
2022-08-07T02:27:51.904Z,12.10
2022-08-07T02:30:21.871Z,15.18
2022-08-07T02:33:03.841Z,13.40
2022-08-07T02:36:28.701Z,15.80
2022-08-07T02:38:31.780Z,13.80
2022-08-07T02:41:04.418Z,13.57
2022-08-07T02:43:34.001Z,12.82
2022-08-07T02:46:05.607Z,12.27
2022-08-07T02:48:34.473Z,22.45
2022-08-07T02:51:28.950Z,13.50
2022-08-07T02:53:58.247Z,13.07
2022-08-07T02:56:31.397Z,12.73
2022-08-07T02:59:03.291Z,14.02
2022-08-07T03:01:35.126Z,12.57
2022-08-07T03:04:07.061Z,14.13
2022-08-07T03:06:38.837Z,12.18
2022-08-07T03:09:11.125Z,12.07
2022-08-07T03:11:52.296Z,12.63
2022-08-07T03:14:27.923Z,13.88
2022-08-07T03:16:57.271Z,13.77
2022-08-07T03:19:28.943Z,12.85
2022-08-07T03:22:06.343Z,11.63
2022-08-07T03:24:36.567Z,16.00
2022-08-07T03:27:09.289Z,16.20
2022-08-07T03:29:44.739Z,15.75
2022-08-07T03:32:22.002Z,15.57
2022-08-07T03:35:01.116Z,16.25
2022-08-07T03:37:46.246Z,15.43
2022-08-07T03:40:24.271Z,12.02
2022-08-07T03:43:01.723Z,13.18
2022-08-07T03:45:31.614Z,16.10
2022-08-07T03:48:00.759Z,18.15
2022-08-07T03:50:30.463Z,15.60
2022-08-07T03:53:00.386Z,15.25
2022-08-07T03:55:58.303Z,14.10
2022-08-07T03:59:07.272Z,15.57
2022-08-07T04:01:13.876Z,14.63
2022-08-07T04:03:53.476Z,16.75
2022-08-07T04:06:37.660Z,17.27
2022-08-07T04:09:08.501Z,15.98
2022-08-07T04:12:25.548Z,14.48
2022-08-07T04:14:38.925Z,16.52
2022-08-07T04:17:19.979Z,17.92
2022-08-07T04:20:01.351Z,14.88
2022-08-07T04:22:30.064Z,11.73
2022-08-07T04:25:01.419Z,15.55
2022-08-07T04:27:35.536Z,13.30
2022-08-07T04:30:11.644Z,18.48
2022-08-07T04:32:58.082Z,16.67
2022-08-07T04:35:27.108Z,12.65
2022-08-07T04:38:03.398Z,14.57
2022-08-07T04:40:35.726Z,15.70
2022-08-07T04:43:12.790Z,13.55
2022-08-07T04:46:01.199Z,15.75
2022-08-07T04:48:40.862Z,16.23
2022-08-07T04:51:20.517Z,15.18
2022-08-07T04:54:06.313Z,14.20
2022-08-07T04:58:11.092Z,14.00
2022-08-07T05:00:12.728Z,12.32
2022-08-07T05:02:31.785Z,12.25
2022-08-07T05:05:11.927Z,12.68
2022-08-07T05:07:59.468Z,15.55
2022-08-07T05:10:35.128Z,18.02
2022-08-07T05:14:56.532Z,12.43
2022-08-07T05:16:04.638Z,15.60
2022-08-07T05:18:39.913Z,14.60
2022-08-07T05:21:12.294Z,12.95
2022-08-07T05:23:48.658Z,15.95
2022-08-07T05:26:24.334Z,16.80
2022-08-07T05:28:55.606Z,14.50
2022-08-07T05:31:35.095Z,12.63
2022-08-07T05:34:11.018Z,13.43
2022-08-07T05:36:41.431Z,12.07
2022-08-07T05:40:13.616Z,13.75
2022-08-07T05:42:02.533Z,17.15
2022-08-07T05:44:36.520Z,10.60
2022-08-07T05:47:18.148Z,12.10
2022-08-07T05:49:49.943Z,16.33
2022-08-07T05:52:20.052Z,13.40
2022-08-07T05:54:55.360Z,15.60
2022-08-07T05:57:26.530Z,12.65
2022-08-07T06:00:01.180Z,16.23
2022-08-07T06:02:32.910Z,14.68
2022-08-07T06:05:05.958Z,13.77
2022-08-07T06:08:13.406Z,12.25
2022-08-07T06:10:24.630Z,12.90
2022-08-07T06:12:53.088Z,12.82
2022-08-07T06:15:38.975Z,9.82
2022-08-07T06:18:14.083Z,11.90
2022-08-07T06:20:50.462Z,13.07
2022-08-07T06:24:37.816Z,13.32
2022-08-07T06:26:27.266Z,14.32
2022-08-07T06:28:58.938Z,12.63
2022-08-07T06:31:46.831Z,12.48
2022-08-07T06:34:16.199Z,11.07
2022-08-07T06:36:52.074Z,13.18
2022-08-07T06:40:16.739Z,13.10
2022-08-07T06:42:12.884Z,12.00
2022-08-07T06:44:42.161Z,12.52
2022-08-07T06:47:12.335Z,14.35
2022-08-07T06:49:52.208Z,10.95
2022-08-07T06:52:36.048Z,11.57
2022-08-07T06:55:34.199Z,11.52
2022-08-07T06:57:59.753Z,13.02
2022-08-07T07:00:30.455Z,13.02
2022-08-07T07:03:00.816Z,9.68
2022-08-07T07:06:05.048Z,12.48
2022-08-07T07:08:25.576Z,12.27
2022-08-07T07:10:57.431Z,9.75
2022-08-07T07:13:55.921Z,11.05
2022-08-07T07:16:27.506Z,12.38
2022-08-07T07:19:11.473Z,7.38
2022-08-07T07:22:04.812Z,13.55
2022-08-07T07:25:02.649Z,10.57
2022-08-07T07:27:56.140Z,10.38
2022-08-07T07:30:38.060Z,8.38
2022-08-07T07:33:11.913Z,8.88
2022-08-07T07:35:43.767Z,8.73
2022-08-07T07:38:25.987Z,10.85
2022-08-07T07:41:02.235Z,8.50
2022-08-07T07:43:48.232Z,11.40
2022-08-07T07:46:36.972Z,8.38
2022-08-07T07:50:35.221Z,9.27
2022-08-07T07:52:02.294Z,8.13
2022-08-07T07:54:33.187Z,9.70
2022-08-07T07:57:07.926Z,9.65
2022-08-07T07:59:52.783Z,13.65
2022-08-07T08:02:35.494Z,9.30
2022-08-07T08:05:05.628Z,8.60
2022-08-07T08:07:59.741Z,8.13
2022-08-07T08:10:35.518Z,10.93
2022-08-07T08:13:15.232Z,8.93
2022-08-07T08:15:58.377Z,9.35
2022-08-07T08:18:29.486Z,10.68
2022-08-07T08:21:01.444Z,9.30
2022-08-07T08:23:51.956Z,8.32
2022-08-07T08:26:39.692Z,12.30
2022-08-07T08:29:11.352Z,9.25
2022-08-07T08:32:17.055Z,12.70
2022-08-07T08:34:32.965Z,6.40
2022-08-07T08:37:03.970Z,8.88
2022-08-07T08:39:39.645Z,9.63
2022-08-07T08:42:28.049Z,9.55
2022-08-07T08:45:06.905Z,7.43
2022-08-07T08:47:54.646Z,7.13
2022-08-07T08:50:28.604Z,6.20
2022-08-07T08:53:16.667Z,8.60
2022-08-07T08:55:54.761Z,10.52
2022-08-07T08:58:35.781Z,12.30
2022-08-07T09:01:15.752Z,8.32
2022-08-07T09:03:55.322Z,8.13
2022-08-07T09:06:36.842Z,9.88
2022-08-07T09:09:21.036Z,12.80
2022-08-07T09:12:19.943Z,7.95
2022-08-07T09:16:22.758Z,7.97
2022-08-07T09:18:22.124Z,8.27
2022-08-07T09:21:02.507Z,7.88
2022-08-07T09:24:34.199Z,5.25
2022-08-07T09:26:40.229Z,7.65
2022-08-07T09:30:03.873Z,8.45
2022-08-07T09:32:23.862Z,8.90
2022-08-07T09:36:02.815Z,6.13
2022-08-07T09:38:03.925Z,6.93
2022-08-07T09:40:50.308Z,4.93
2022-08-07T09:43:40.248Z,7.55
2022-08-07T09:47:51.360Z,5.35
2022-08-07T09:50:00.731Z,6.18
2022-08-07T09:52:36.006Z,10.10
2022-08-07T09:55:29.022Z,4.82
2022-08-07T09:58:32.306Z,8.10
2022-08-07T10:01:53.306Z,5.72
2022-08-07T10:04:32.825Z,4.25
2022-08-07T10:07:39.980Z,4.20
2022-08-07T10:10:25.408Z,6.22
2022-08-07T10:14:00.319Z,5.30
2022-08-07T10:16:39.428Z,4.05
2022-08-07T10:19:26.893Z,4.93
2022-08-07T10:22:15.848Z,3.03
2022-08-07T10:24:57.365Z,3.88
2022-08-07T10:27:46.361Z,4.35
2022-08-07T10:30:18.908Z,4.72
2022-08-07T10:33:15.229Z,7.05
2022-08-07T10:36:10.941Z,4.32
2022-08-07T10:38:51.199Z,5.47
2022-08-07T10:41:47.305Z,3.45
2022-08-07T10:44:28.727Z,4.25
2022-08-07T10:47:27.176Z,5.13
2022-08-07T10:50:15.740Z,5.40
2022-08-07T10:52:56.686Z,6.45
2022-08-07T10:55:38.349Z,7.03
2022-08-07T10:58:40.218Z,4.95
2022-08-07T11:01:35.260Z,6.00
2022-08-07T11:04:32.271Z,3.78
2022-08-07T11:07:24.751Z,8.90
2022-08-07T11:10:09.538Z,4.88
2022-08-07T11:12:43.861Z,5.47
2022-08-07T11:15:31.670Z,4.60
2022-08-07T11:18:07.181Z,2.92
2022-08-07T11:20:44.219Z,6.28
2022-08-07T11:23:30.315Z,4.50
2022-08-07T11:26:06.671Z,4.72
2022-08-07T11:28:40.316Z,5.20
2022-08-07T11:31:21.166Z,4.43
2022-08-07T11:33:59.801Z,5.55
2022-08-07T11:37:00.178Z,4.90
2022-08-07T11:39:59.927Z,3.30
2022-08-07T11:42:42.117Z,3.40
2022-08-07T11:45:20.749Z,2.95
2022-08-07T11:48:29.174Z,3.17
2022-08-07T11:51:41.607Z,3.22
2022-08-07T11:54:26.117Z,4.25
2022-08-07T11:57:06.911Z,5.18
2022-08-07T12:00:11.640Z,4.28
2022-08-07T12:03:41.499Z,3.38
2022-08-07T12:06:37.923Z,3.28
2022-08-07T12:09:16.172Z,4.47
2022-08-07T12:12:10.205Z,6.32
2022-08-07T12:14:51.424Z,4.30
2022-08-07T12:17:33.838Z,4.97
2022-08-07T12:20:19.937Z,3.28
2022-08-07T12:23:37.187Z,4.22
2022-08-07T12:26:22.928Z,4.55
2022-08-07T12:29:07.080Z,4.88
2022-08-07T12:32:01.768Z,7.97
2022-08-07T12:34:30.442Z,5.50
2022-08-07T12:37:00.896Z,4.25
2022-08-07T12:39:43.579Z,8.32
2022-08-07T12:42:27.636Z,5.30
2022-08-07T12:44:59.458Z,6.60
2022-08-07T12:47:39.720Z,5.93
2022-08-07T12:50:39.081Z,5.78
2022-08-07T12:53:17.715Z,3.65
2022-08-07T12:56:03.346Z,7.60
2022-08-07T12:58:39.344Z,4.25
2022-08-07T13:01:18.420Z,7.72
2022-08-07T13:04:02.940Z,3.20
2022-08-07T13:07:03.946Z,6.13
2022-08-07T13:10:21.920Z,5.18
2022-08-07T13:13:02.811Z,5.93
2022-08-07T13:15:42.768Z,6.30
2022-08-07T13:18:26.262Z,5.88
2022-08-07T13:21:03.647Z,5.03
2022-08-07T13:24:03.889Z,3.47
2022-08-07T13:26:35.189Z,6.88
2022-08-07T13:29:12.922Z,3.65
2022-08-07T13:31:57.646Z,3.67
2022-08-07T13:34:38.675Z,4.78
2022-08-07T13:37:19.774Z,4.22
2022-08-07T13:40:35.266Z,5.78
2022-08-07T13:42:49.790Z,4.00
2022-08-07T13:46:11.533Z,5.25
2022-08-07T13:48:20.636Z,3.85
2022-08-07T13:51:02.331Z,2.78
2022-08-07T13:54:00.454Z,3.22
2022-08-07T13:56:35.963Z,4.05
2022-08-07T13:59:12.758Z,4.55
2022-08-07T14:02:03.829Z,5.72
2022-08-07T14:04:46.103Z,4.25
2022-08-07T14:07:22.833Z,3.88
2022-08-07T14:10:08.444Z,3.50
2022-08-07T14:12:55.002Z,6.45
2022-08-07T14:15:31.702Z,4.63
2022-08-07T14:18:15.939Z,4.28
2022-08-07T14:21:08.125Z,3.55
2022-08-07T14:24:01.250Z,5.50
2022-08-07T14:26:40.590Z,4.20
2022-08-07T14:30:08.044Z,4.88
2022-08-07T14:32:04.109Z,7.70
2022-08-07T14:34:45.846Z,5.38
2022-08-07T14:37:17.188Z,3.38
2022-08-07T14:40:15.759Z,4.82
2022-08-07T14:43:54.762Z,5.93
2022-08-07T14:45:46.444Z,4.85
2022-08-07T14:48:19.836Z,3.78
2022-08-07T14:50:53.445Z,2.38
2022-08-07T14:54:05.424Z,4.03
2022-08-07T14:56:13.176Z,5.55
2022-08-07T14:58:48.992Z,3.80
2022-08-07T15:01:24.624Z,3.10
2022-08-07T15:03:53.767Z,4.60
2022-08-07T15:06:26.242Z,3.65
2022-08-07T15:08:56.156Z,6.43
2022-08-07T15:11:53.878Z,4.18
2022-08-07T15:14:21.785Z,3.53
2022-08-07T15:16:55.863Z,3.92
2022-08-07T15:25:19.255Z,4.53
2022-08-07T15:28:33.092Z,6.57
2022-08-07T15:31:05.393Z,5.85
2022-08-07T15:33:34.025Z,6.40
2022-08-07T15:36:07.900Z,4.68
2022-08-07T15:38:51.711Z,3.42
2022-08-07T15:42:46.534Z,5.13
2022-08-07T15:44:23.555Z,3.13
2022-08-07T15:46:58.605Z,3.67
2022-08-07T15:50:05.831Z,4.15
2022-08-07T15:52:30.620Z,2.75
2022-08-07T15:55:04.264Z,6.95
2022-08-07T15:57:39.961Z,4.97
2022-08-07T16:00:31.697Z,3.50
2022-08-07T16:03:05.830Z,3.13
2022-08-07T16:05:36.027Z,3.75
2022-08-07T16:08:31.236Z,6.25
2022-08-07T16:11:03.471Z,7.88
2022-08-07T16:14:07.084Z,7.55
2022-08-07T16:16:57.027Z,7.43
2022-08-07T16:19:41.849Z,3.20
2022-08-07T16:22:55.117Z,5.80
2022-08-07T16:25:54.424Z,5.32
2022-08-07T16:30:06.617Z,4.47
2022-08-07T16:32:05.037Z,4.40
2022-08-07T16:34:40.679Z,3.63
2022-08-07T16:38:05.230Z,3.38
2022-08-07T16:41:04.549Z,4.00
2022-08-07T16:44:02.355Z,3.55
2022-08-07T16:47:15.747Z,4.78
2022-08-07T16:50:35.809Z,3.75
2022-08-07T16:54:01.109Z,6.38
2022-08-07T16:56:37.678Z,6.18
2022-08-07T16:59:17.488Z,3.80
2022-08-07T17:01:59.084Z,4.65
2022-08-07T17:04:57.962Z,5.05
2022-08-07T17:07:55.656Z,4.30
2022-08-07T17:10:34.176Z,2.13
2022-08-07T17:13:41.799Z,4.10
2022-08-07T17:16:22.491Z,2.42
2022-08-07T17:19:05.460Z,2.25
2022-08-07T17:21:51.054Z,2.88
2022-08-07T17:24:34.610Z,3.58
2022-08-07T17:27:06.425Z,3.53
2022-08-07T17:30:14.720Z,3.50
2022-08-07T17:32:53.377Z,4.85
2022-08-07T17:35:51.557Z,3.60
2022-08-07T17:38:33.060Z,3.65
2022-08-07T17:42:03.934Z,2.45
2022-08-07T17:44:15.640Z,6.05
2022-08-07T17:47:04.105Z,5.03
2022-08-07T17:49:45.101Z,2.28
2022-08-07T17:52:21.877Z,3.47
2022-08-07T17:55:06.048Z,4.07
2022-08-07T17:57:58.276Z,3.38
2022-08-07T18:00:34.675Z,3.80
2022-08-07T18:03:25.579Z,3.15
2022-08-07T18:06:02.710Z,2.60
2022-08-07T18:09:01.065Z,4.10
2022-08-07T18:12:08.420Z,2.92
2022-08-07T18:14:37.496Z,4.00
2022-08-07T18:18:45.130Z,2.83
2022-08-07T18:21:09.408Z,4.65
2022-08-07T18:23:26.939Z,3.05
2022-08-07T18:26:05.402Z,4.00
2022-08-07T18:29:03.909Z,3.08
2022-08-07T18:31:49.965Z,3.63
2022-08-07T18:34:40.729Z,4.43
2022-08-07T18:38:58.329Z,2.85
2022-08-07T18:40:42.536Z,2.80
2022-08-07T18:43:36.957Z,3.28
2022-08-07T18:46:25.525Z,4.55
2022-08-07T18:50:32.679Z,4.18
2022-08-07T18:52:35.097Z,3.08
2022-08-07T18:54:58.185Z,4.38
2022-08-07T18:57:58.511Z,7.50
2022-08-07T19:00:41.948Z,3.63
2022-08-07T19:03:37.797Z,4.45
2022-08-07T19:06:16.421Z,3.92
2022-08-07T19:09:09.589Z,3.30
2022-08-07T19:12:06.806Z,3.40
2022-08-07T19:14:51.117Z,5.65
2022-08-07T19:17:54.409Z,3.03
2022-08-07T19:20:28.710Z,5.22
2022-08-07T19:23:17.713Z,4.82
2022-08-07T19:26:23.163Z,4.45
2022-08-07T19:30:54.412Z,5.57
2022-08-07T19:32:05.331Z,4.85
2022-08-07T19:34:32.773Z,4.00
2022-08-07T19:37:10.129Z,6.35
2022-08-07T19:39:56.721Z,3.92
2022-08-07T19:42:30.401Z,4.85
2022-08-07T19:45:09.418Z,4.85
2022-08-07T19:47:42.084Z,4.95
2022-08-07T19:50:41.278Z,7.18
2022-08-07T19:53:01.149Z,3.15
2022-08-07T19:55:57.834Z,5.18
2022-08-07T19:58:27.925Z,5.00
2022-08-07T20:00:59.533Z,4.70
2022-08-07T20:03:35.079Z,4.05
2022-08-07T20:06:15.525Z,5.35
2022-08-07T20:09:01.890Z,6.90
2022-08-07T20:12:01.130Z,5.45
2022-08-07T20:14:31.333Z,6.35
2022-08-07T20:17:03.741Z,4.75
2022-08-07T20:19:47.569Z,3.95
2022-08-07T20:22:29.037Z,7.18
2022-08-07T20:25:06.305Z,6.38
2022-08-07T20:27:45.963Z,4.25
2022-08-07T20:30:22.576Z,4.93
2022-08-07T20:32:55.760Z,4.20
2022-08-07T20:35:34.326Z,5.45
2022-08-07T20:38:06.438Z,6.43
2022-08-07T20:40:41.353Z,4.72
2022-08-07T20:43:19.486Z,6.65
2022-08-07T20:46:28.667Z,5.20
2022-08-07T20:49:55.200Z,7.97
2022-08-07T20:51:36.065Z,6.97
2022-08-07T20:54:11.992Z,5.20
2022-08-07T20:56:48.393Z,8.05
2022-08-07T21:00:05.226Z,3.85
2022-08-07T21:02:34.042Z,6.38
2022-08-07T21:05:16.061Z,6.35
2022-08-07T21:07:48.764Z,6.88
2022-08-07T21:10:29.859Z,5.03
2022-08-07T21:13:01.701Z,6.03
2022-08-07T21:15:47.751Z,5.18
2022-08-07T21:18:25.499Z,5.90
2022-08-07T21:20:57.570Z,5.05
2022-08-07T21:23:49.545Z,6.80
2022-08-07T21:26:32.260Z,5.72
2022-08-07T21:29:15.883Z,6.70
2022-08-07T21:32:42.693Z,7.35
2022-08-07T21:34:57.553Z,6.85
2022-08-07T21:37:57.740Z,5.32
2022-08-07T21:40:36.169Z,4.53
2022-08-07T21:43:10.713Z,6.63
2022-08-07T21:46:08.532Z,6.30
2022-08-07T21:48:44.052Z,6.47
2022-08-07T21:51:26.024Z,8.07
2022-08-07T21:53:59.453Z,4.57
2022-08-07T21:56:48.128Z,6.38
2022-08-07T22:00:02.914Z,4.65
2022-08-07T22:02:28.676Z,7.45
2022-08-07T22:05:03.843Z,6.13
2022-08-07T22:07:58.787Z,5.88
2022-08-07T22:10:33.688Z,4.45
2022-08-07T22:13:09.393Z,7.97
2022-08-07T22:16:45.743Z,10.65
2022-08-07T22:18:36.620Z,9.55
2022-08-07T22:21:15.605Z,8.65
2022-08-07T22:23:53.905Z,7.65
2022-08-07T22:26:25.141Z,10.90
2022-08-07T22:29:00.478Z,9.60
2022-08-07T22:31:56.357Z,7.28
2022-08-07T22:34:36.017Z,9.75
2022-08-07T22:37:18.199Z,9.93
2022-08-07T22:39:54.025Z,9.27
2022-08-07T22:42:53.837Z,8.13
2022-08-07T22:46:04.495Z,6.15
2022-08-07T22:48:31.777Z,8.88
2022-08-07T22:51:36.482Z,7.80
2022-08-07T22:54:20.229Z,4.63
2022-08-07T22:57:02.001Z,10.30
2022-08-07T22:59:52.670Z,11.02
2022-08-07T23:02:32.408Z,10.57
2022-08-07T23:06:08.601Z,6.40
2022-08-07T23:08:51.513Z,10.60
2022-08-07T23:11:41.349Z,8.32
2022-08-07T23:14:30.467Z,4.30
2022-08-07T23:17:24.781Z,8.23
2022-08-07T23:20:51.038Z,6.93
2022-08-07T23:24:04.319Z,7.35
2022-08-07T23:26:26.209Z,5.55
2022-08-07T23:29:43.817Z,6.47
2022-08-07T23:34:19.879Z,5.68
2022-08-07T23:35:22.687Z,4.60
2022-08-07T23:38:19.450Z,3.85
2022-08-07T23:41:17.926Z,6.90
2022-08-07T23:44:05.797Z,3.80
2022-08-07T23:47:10.781Z,2.83
2022-08-07T23:50:16.204Z,4.75
2022-08-07T23:53:01.106Z,6.32
2022-08-07T23:55:52.712Z,3.95
2022-08-07T23:58:28.100Z,3.58
